createdAt,value
2019-03-27T00:00:27.809Z,11.2
2019-03-27T00:01:27.931Z,13
2019-03-27T00:02:28.034Z,16.4
2019-03-27T00:03:28.135Z,14.4
2019-03-27T00:04:28.225Z,12.8
2019-03-27T00:05:28.352Z,11.2
2019-03-27T00:06:28.469Z,12.3
2019-03-27T00:07:28.571Z,14
2019-03-27T00:08:28.709Z,14.5
2019-03-27T00:09:28.841Z,13
2019-03-27T00:10:29.008Z,12.4
2019-03-27T00:11:28.951Z,12.4
2019-03-27T00:12:29.050Z,12.4
2019-03-27T00:13:29.181Z,12
2019-03-27T00:14:29.298Z,12.7
2019-03-27T00:15:29.453Z,13.1
2019-03-27T00:16:29.545Z,13.1
2019-03-27T00:17:29.639Z,12.5
2019-03-27T00:18:29.746Z,13.1
2019-03-27T00:19:29.887Z,12.3
2019-03-27T00:20:30.097Z,12.2
2019-03-27T00:21:30.068Z,13.2
2019-03-27T00:22:30.189Z,13.3
2019-03-27T00:23:30.288Z,11.4
2019-03-27T00:24:30.405Z,12.3
2019-03-27T00:25:30.529Z,11.8
2019-03-27T00:26:30.649Z,12.4
2019-03-27T00:27:30.816Z,13
2019-03-27T00:28:30.756Z,13.3
2019-03-27T00:29:30.898Z,11.8
2019-03-27T00:30:31.059Z,11.8
2019-03-27T00:31:31.162Z,11.1
2019-03-27T00:32:31.302Z,12
2019-03-27T00:33:31.406Z,13.8
2019-03-27T00:34:31.518Z,12.9
2019-03-27T00:35:31.636Z,13.1
2019-03-27T00:36:31.760Z,13.3
2019-03-27T00:37:31.875Z,12.4
2019-03-27T00:38:32.023Z,13
2019-03-27T00:39:32.130Z,13.4
2019-03-27T00:40:32.308Z,12
2019-03-27T00:41:32.247Z,12.1
2019-03-27T00:42:32.352Z,13
2019-03-27T00:43:32.467Z,12.5
2019-03-27T00:44:32.571Z,11.7
2019-03-27T00:45:32.693Z,11.8
2019-03-27T00:46:32.794Z,12.5
2019-03-27T00:47:32.964Z,11.8
2019-03-27T00:48:32.972Z,12.1
2019-03-27T00:49:32.928Z,12.2
2019-03-27T00:50:33.074Z,12.4
2019-03-27T00:51:33.185Z,11.8
2019-03-27T00:52:33.313Z,11.9
2019-03-27T00:53:33.423Z,13.4
2019-03-27T00:54:33.530Z,13.2
2019-03-27T00:55:33.679Z,13.2
2019-03-27T00:56:33.806Z,12.5
2019-03-27T00:57:33.901Z,12.3
2019-03-27T00:58:34.027Z,14.4
2019-03-27T00:59:34.150Z,13.1
2019-03-27T01:00:34.318Z,15
2019-03-27T01:01:34.248Z,14
2019-03-27T01:02:34.371Z,14.2
2019-03-27T01:03:34.497Z,13.7
2019-03-27T01:04:34.623Z,13.8
2019-03-27T01:05:34.756Z,15.2
2019-03-27T01:06:34.882Z,15.5
2019-03-27T01:07:34.983Z,14.6
2019-03-27T01:08:35.089Z,14.1
2019-03-27T01:09:35.204Z,15
2019-03-27T01:10:35.381Z,15.2
2019-03-27T01:11:35.334Z,15
2019-03-27T01:12:35.450Z,15.5
2019-03-27T01:13:35.635Z,17
2019-03-27T01:14:35.701Z,17.9
2019-03-27T01:15:39.886Z,17.6
2019-03-27T01:16:36.880Z,16.6
2019-03-27T01:17:36.043Z,16.799999
2019-03-27T01:18:36.151Z,16.4
2019-03-27T01:19:36.260Z,15.9
2019-03-27T01:20:36.425Z,14.1
2019-03-27T01:21:36.378Z,13.9
2019-03-27T01:22:36.505Z,15
2019-03-27T01:23:36.626Z,13.8
2019-03-27T01:24:36.754Z,14.8
2019-03-27T01:25:36.887Z,14.7
2019-03-27T01:26:37.004Z,14.6
2019-03-27T01:27:37.115Z,13.8
2019-03-27T01:28:37.268Z,14.9
2019-03-27T01:29:37.368Z,15.2
2019-03-27T01:30:37.532Z,15.1
2019-03-27T01:31:37.646Z,15.3
2019-03-27T01:32:37.740Z,14.5
2019-03-27T01:33:37.860Z,14.9
2019-03-27T01:34:37.952Z,15.7
2019-03-27T01:35:39.098Z,16.4
2019-03-27T01:36:38.205Z,16.4
2019-03-27T01:37:38.312Z,16.4
2019-03-27T01:38:38.418Z,15.3
2019-03-27T01:39:38.531Z,15
2019-03-27T01:40:38.684Z,16.299999
2019-03-27T01:41:38.804Z,16.799999
2019-03-27T01:42:38.908Z,17.799999
2019-03-27T01:43:39.017Z,17.1
2019-03-27T01:44:39.130Z,16.5
2019-03-27T01:45:52.101Z,17.1
2019-03-27T01:46:40.337Z,17.5
2019-03-27T01:47:39.447Z,17.700001
2019-03-27T01:48:39.558Z,17.799999
2019-03-27T01:49:39.688Z,17.200001
2019-03-27T01:50:39.825Z,17.299999
2019-03-27T01:51:39.929Z,17.4
2019-03-27T01:52:40.048Z,19.299999
2019-03-27T01:53:40.163Z,18.299999
2019-03-27T01:54:40.290Z,17.1
2019-03-27T01:55:40.462Z,17.9
2019-03-27T01:56:40.400Z,18.4
2019-03-27T01:57:40.538Z,18
2019-03-27T01:58:40.631Z,18.4
2019-03-27T01:59:40.731Z,17.9
2019-03-27T02:00:40.855Z,19.1
2019-03-27T02:01:40.955Z,19.5
2019-03-27T02:02:42.060Z,19.4
2019-03-27T02:03:41.163Z,21.6
2019-03-27T02:04:41.291Z,19.4
2019-03-27T02:05:41.441Z,20.200001
2019-03-27T02:06:41.587Z,18.9
2019-03-27T02:07:41.717Z,18.9
2019-03-27T02:08:41.836Z,19.1
2019-03-27T02:09:41.941Z,20.6
2019-03-27T02:10:42.105Z,20.700001
2019-03-27T02:11:42.070Z,19.799999
2019-03-27T02:12:42.171Z,21
2019-03-27T02:13:42.287Z,21.1
2019-03-27T02:14:42.416Z,21
2019-03-27T02:15:42.555Z,20.9
2019-03-27T02:16:42.694Z,21.5
2019-03-27T02:17:42.837Z,21.1
2019-03-27T02:18:42.947Z,20.6
2019-03-27T02:19:43.060Z,26.200001
2019-03-27T02:20:43.199Z,25.6
2019-03-27T02:21:43.311Z,28.6
2019-03-27T02:22:43.418Z,24.5
2019-03-27T02:23:43.547Z,21.4
2019-03-27T02:24:43.644Z,21.700001
2019-03-27T02:25:43.787Z,24.1
2019-03-27T02:26:43.882Z,22.4
2019-03-27T02:27:44.005Z,22.299999
2019-03-27T02:28:44.153Z,23.1
2019-03-27T02:29:44.259Z,22.4
2019-03-27T02:30:44.436Z,22.299999
2019-03-27T02:31:44.387Z,22.200001
2019-03-27T02:32:44.507Z,20.700001
2019-03-27T02:33:44.614Z,22.200001
2019-03-27T02:34:44.719Z,21.4
2019-03-27T02:35:44.844Z,21.6
2019-03-27T02:36:44.960Z,19.799999
2019-03-27T02:37:45.066Z,23.6
2019-03-27T02:38:45.170Z,23.200001
2019-03-27T02:39:45.273Z,22.4
2019-03-27T02:40:45.435Z,26.5
2019-03-27T02:41:45.555Z,25.299999
2019-03-27T02:42:45.655Z,26.700001
2019-03-27T02:43:45.754Z,24.1
2019-03-27T02:44:45.881Z,25.700001
2019-03-27T02:45:46.039Z,24.700001
2019-03-27T02:46:46.137Z,29.9
2019-03-27T02:47:46.230Z,23.9
2019-03-27T02:48:46.340Z,27.5
2019-03-27T02:49:46.434Z,25
2019-03-27T02:50:46.591Z,28
2019-03-27T02:51:46.559Z,30.799999
2019-03-27T02:52:46.705Z,25.1
2019-03-27T02:53:46.818Z,26.4
2019-03-27T02:54:46.932Z,26.5
2019-03-27T02:55:47.086Z,26.9
2019-03-27T02:56:47.197Z,30.299999
2019-03-27T02:57:47.331Z,29.799999
2019-03-27T02:58:47.443Z,30.9
2019-03-27T02:59:47.561Z,29
2019-03-27T03:00:47.684Z,26.1
2019-03-27T03:01:48.319Z,27
2019-03-27T03:02:47.881Z,27.9
2019-03-27T03:03:47.987Z,26.200001
2019-03-27T03:04:48.096Z,26.299999
2019-03-27T03:05:48.242Z,28.799999
2019-03-27T03:06:48.350Z,30.200001
2019-03-27T03:07:48.447Z,31.299999
2019-03-27T03:08:48.549Z,30.9
2019-03-27T03:09:48.706Z,29.799999
2019-03-27T03:10:48.814Z,32.599998
2019-03-27T03:11:48.916Z,31.200001
2019-03-27T03:12:49.016Z,31.4
2019-03-27T03:13:49.116Z,34.400002
2019-03-27T03:14:49.220Z,32.700001
2019-03-27T03:15:49.360Z,32.599998
2019-03-27T03:16:49.459Z,37.299999
2019-03-27T03:17:49.571Z,40
2019-03-27T03:18:49.666Z,37.299999
2019-03-27T03:19:49.851Z,32.200001
2019-03-27T03:20:49.934Z,31.200001
2019-03-27T03:21:49.860Z,29.4
2019-03-27T03:22:49.966Z,30.9
2019-03-27T03:23:50.074Z,29.1
2019-03-27T03:24:50.186Z,28.6
2019-03-27T03:25:50.316Z,28.299999
2019-03-27T03:26:51.291Z,28.6
2019-03-27T03:27:50.502Z,30.799999
2019-03-27T03:28:50.593Z,32.900002
2019-03-27T03:29:50.700Z,29.5
2019-03-27T03:30:50.821Z,29.700001
2019-03-27T03:31:50.923Z,27.9
2019-03-27T03:32:51.057Z,28.1
2019-03-27T03:33:51.129Z,32.299999
2019-03-27T03:34:51.217Z,30
2019-03-27T03:35:51.334Z,40
2019-03-27T03:36:51.441Z,36
2019-03-27T03:37:52.539Z,34.5
2019-03-27T03:38:51.619Z,34.5
2019-03-27T03:39:51.731Z,37.700001
2019-03-27T03:40:51.876Z,42.299999
2019-03-27T03:41:51.973Z,42.099998
2019-03-27T03:42:52.081Z,43.5
2019-03-27T03:43:52.184Z,37.799999
2019-03-27T03:44:52.291Z,38.099998
2019-03-27T03:45:52.426Z,35.299999
2019-03-27T03:46:59.231Z,43
2019-03-27T03:47:53.577Z,32.200001
2019-03-27T03:48:52.679Z,43.299999
2019-03-27T03:49:52.794Z,38.5
2019-03-27T03:50:52.942Z,34.700001
2019-03-27T03:51:53.048Z,28.700001
2019-03-27T03:52:53.135Z,36.599998
2019-03-27T03:53:53.234Z,36.799999
2019-03-27T03:54:53.339Z,39.200001
2019-03-27T03:55:53.472Z,33
2019-03-27T03:56:53.574Z,30.5
2019-03-27T03:57:53.681Z,29.200001
2019-03-27T03:58:53.794Z,28.9
2019-03-27T03:59:53.910Z,28.9
2019-03-27T04:00:54.035Z,29.4
2019-03-27T04:01:54.157Z,30.700001
2019-03-27T04:02:54.248Z,30.6
2019-03-27T04:03:54.378Z,31.5
2019-03-27T04:04:54.484Z,32.299999
2019-03-27T04:05:54.614Z,39.5
2019-03-27T04:06:54.727Z,39.299999
2019-03-27T04:07:54.824Z,38.599998
2019-03-27T04:08:54.996Z,37.599998
2019-03-27T04:09:54.952Z,37.799999
2019-03-27T04:10:55.084Z,39.200001
2019-03-27T04:11:55.195Z,38.099998
2019-03-27T04:12:55.303Z,36.400002
2019-03-27T04:13:55.466Z,38.299999
2019-03-27T04:14:55.580Z,37.799999
2019-03-27T04:15:55.714Z,37.099998
2019-03-27T04:16:55.859Z,35.900002
2019-03-27T04:17:55.988Z,36.099998
2019-03-27T04:18:56.077Z,35.5
2019-03-27T04:19:56.221Z,34.599998
2019-03-27T04:20:56.373Z,34.700001
2019-03-27T04:21:56.521Z,33
2019-03-27T04:22:56.623Z,34.200001
2019-03-27T04:23:56.722Z,33.700001
2019-03-27T04:24:56.826Z,34.200001
2019-03-27T04:26:08.697Z,35.700001
2019-03-27T04:26:58.063Z,34.700001
2019-03-27T04:27:57.199Z,37
2019-03-27T04:28:57.318Z,33.099998
2019-03-27T04:29:57.435Z,32.799999
2019-03-27T04:30:57.572Z,34.400002
2019-03-27T04:31:57.688Z,31.799999
2019-03-27T04:32:57.813Z,30.4
2019-03-27T04:33:57.929Z,30
2019-03-27T04:34:59.022Z,36.5
2019-03-27T04:35:58.158Z,36.099998
2019-03-27T04:36:58.290Z,33.799999
2019-03-27T04:37:58.428Z,37.099998
2019-03-27T04:38:58.531Z,37.200001
2019-03-27T04:39:58.637Z,35.5
2019-03-27T04:40:58.759Z,33.5
2019-03-27T04:41:58.796Z,37.099998
2019-03-27T04:42:58.924Z,36.099998
2019-03-27T04:43:59.039Z,34.700001
2019-03-27T04:44:59.159Z,32.5
2019-03-27T04:45:59.280Z,34.599998
2019-03-27T04:46:59.404Z,32.299999
2019-03-27T04:47:59.507Z,33.299999
2019-03-27T04:48:59.626Z,33.5
2019-03-27T04:49:59.750Z,36.799999
2019-03-27T04:50:59.866Z,36
2019-03-27T04:51:59.990Z,35.799999
2019-03-27T04:53:00.098Z,35.400002
2019-03-27T04:54:00.221Z,37.599998
2019-03-27T04:55:00.407Z,41.200001
2019-03-27T04:56:00.444Z,40.599998
2019-03-27T04:57:00.573Z,35.900002
2019-03-27T04:58:00.668Z,45.299999
2019-03-27T04:59:00.795Z,35.5
2019-03-27T05:00:00.953Z,41.200001
2019-03-27T05:01:01.067Z,40.400002
2019-03-27T05:02:01.204Z,41.299999
2019-03-27T05:03:02.294Z,37
2019-03-27T05:04:01.394Z,41.5
2019-03-27T05:05:01.520Z,40.400002
2019-03-27T05:06:01.615Z,41.599998
2019-03-27T05:07:01.785Z,36.400002
2019-03-27T05:08:01.783Z,33.700001
2019-03-27T05:09:01.879Z,33
2019-03-27T05:10:01.990Z,35.799999
2019-03-27T05:11:02.107Z,34.599998
2019-03-27T05:12:02.251Z,35.400002
2019-03-27T05:13:02.378Z,31.799999
2019-03-27T05:14:02.502Z,34.299999
2019-03-27T05:15:02.665Z,35.299999
2019-03-27T05:16:02.765Z,36.700001
2019-03-27T05:17:03.899Z,38.299999
2019-03-27T05:18:03.010Z,35.200001
2019-03-27T05:19:03.107Z,33.5
2019-03-27T05:20:03.300Z,33.599998
2019-03-27T05:21:03.280Z,36.099998
2019-03-27T05:22:03.287Z,41.5
2019-03-27T05:23:03.330Z,47
2019-03-27T05:24:03.313Z,48.599998
2019-03-27T05:25:03.453Z,40.200001
2019-03-27T05:26:03.601Z,44.799999
2019-03-27T05:27:03.800Z,49.099998
2019-03-27T05:28:03.835Z,47.599998
2019-03-27T05:29:03.835Z,43
2019-03-27T05:30:03.834Z,43
2019-03-27T05:31:03.976Z,49.5
2019-03-27T05:32:04.112Z,47.299999
2019-03-27T05:33:04.178Z,47.099998
2019-03-27T05:34:04.222Z,46.5
2019-03-27T05:35:04.281Z,50.099998
2019-03-27T05:36:04.319Z,47.400002
2019-03-27T05:37:04.416Z,39.900002
2019-03-27T05:38:04.473Z,41
2019-03-27T05:39:04.517Z,39.700001
2019-03-27T05:40:04.562Z,38.700001
2019-03-27T05:41:04.630Z,33.900002
2019-03-27T05:42:04.715Z,33.5
2019-03-27T05:43:04.747Z,34
2019-03-27T05:44:04.789Z,32.799999
2019-03-27T05:45:04.840Z,32.900002
2019-03-27T05:46:04.942Z,33.299999
2019-03-27T05:47:05.035Z,33.299999
2019-03-27T05:48:05.071Z,33.400002
2019-03-27T05:49:05.144Z,38.099998
2019-03-27T05:50:05.180Z,38.900002
2019-03-27T05:51:05.234Z,32.099998
2019-03-27T05:52:05.303Z,30.9
2019-03-27T05:53:05.390Z,31.200001
2019-03-27T05:54:05.445Z,30
2019-03-27T05:55:05.506Z,28.9
2019-03-27T05:56:05.567Z,31.200001
2019-03-27T05:57:05.640Z,29.9
2019-03-27T05:58:05.706Z,30.6
2019-03-27T05:59:05.777Z,31.200001
2019-03-27T06:00:05.866Z,28.200001
2019-03-27T06:01:05.908Z,31.200001
2019-03-27T06:02:06.023Z,29.200001
2019-03-27T06:03:06.053Z,31.9
2019-03-27T06:04:06.121Z,33
2019-03-27T06:05:06.172Z,30.799999
2019-03-27T06:06:06.226Z,29.1
2019-03-27T06:07:06.339Z,31.1
2019-03-27T06:08:06.422Z,30
2019-03-27T06:09:07.462Z,31.4
2019-03-27T06:10:06.507Z,32.400002
2019-03-27T06:11:06.529Z,34.099998
2019-03-27T06:12:06.601Z,37.599998
2019-03-27T06:13:06.670Z,35.400002
2019-03-27T06:14:06.711Z,32.400002
2019-03-27T06:15:06.751Z,31.9
2019-03-27T06:16:06.798Z,30.9
2019-03-27T06:17:06.887Z,32.099998
2019-03-27T06:18:12.763Z,30.799999
2019-03-27T06:19:07.963Z,28.799999
2019-03-27T06:20:07.015Z,28.4
2019-03-27T06:21:07.113Z,30
2019-03-27T06:22:07.242Z,30.700001
2019-03-27T06:23:07.278Z,31.5
2019-03-27T06:24:07.335Z,30.6
2019-03-27T06:25:07.381Z,28.700001
2019-03-27T06:26:07.419Z,29.200001
2019-03-27T06:27:07.481Z,27.9
2019-03-27T06:28:07.526Z,25.9
2019-03-27T06:29:07.573Z,25.799999
2019-03-27T06:30:07.670Z,27.9
2019-03-27T06:31:07.711Z,28.9
2019-03-27T06:32:07.784Z,30.200001
2019-03-27T06:33:07.850Z,28.6
2019-03-27T06:34:07.899Z,26.9
2019-03-27T06:35:08.944Z,28
2019-03-27T06:36:07.986Z,31
2019-03-27T06:37:08.053Z,28.6
2019-03-27T06:38:08.108Z,29.1
2019-03-27T06:39:08.179Z,30.9
2019-03-27T06:40:08.223Z,31.4
2019-03-27T06:41:08.263Z,30.700001
2019-03-27T06:42:08.366Z,32.5
2019-03-27T06:43:08.466Z,29.4
2019-03-27T06:44:08.530Z,31.299999
2019-03-27T06:45:08.581Z,28.5
2019-03-27T06:46:08.622Z,25.9
2019-03-27T06:47:08.682Z,35.400002
2019-03-27T06:48:08.764Z,30.299999
2019-03-27T06:49:08.807Z,29
2019-03-27T06:50:08.864Z,23.799999
2019-03-27T06:51:08.924Z,24
2019-03-27T06:52:08.989Z,36.200001
2019-03-27T06:53:09.043Z,27.4
2019-03-27T06:54:09.069Z,25
2019-03-27T06:55:09.120Z,23.700001
2019-03-27T06:56:09.182Z,21.6
2019-03-27T06:57:09.239Z,22.200001
2019-03-27T06:58:09.281Z,23.9
2019-03-27T06:59:09.323Z,22.200001
2019-03-27T07:00:09.364Z,22.4
2019-03-27T07:01:09.436Z,20.5
2019-03-27T07:02:09.491Z,18.4
2019-03-27T07:03:09.547Z,17
2019-03-27T07:04:10.926Z,17.5
2019-03-27T07:05:09.687Z,17.1
2019-03-27T07:06:09.766Z,16.299999
2019-03-27T07:07:09.860Z,16.299999
2019-03-27T07:08:09.907Z,16.299999
2019-03-27T07:09:09.946Z,17.4
2019-03-27T07:10:09.992Z,16.700001
2019-03-27T07:11:10.036Z,16.700001
2019-03-27T07:12:20.366Z,15.8
2019-03-27T07:13:11.127Z,15.2
2019-03-27T07:14:10.161Z,15.3
2019-03-27T07:15:10.223Z,14.7
2019-03-27T07:16:10.377Z,15.7
2019-03-27T07:17:10.279Z,16.700001
2019-03-27T07:18:11.346Z,16.6
2019-03-27T07:19:10.386Z,16.5
2019-03-27T07:20:10.424Z,15.8
2019-03-27T07:21:10.464Z,14.5
2019-03-27T07:22:10.540Z,14.5
2019-03-27T07:23:10.603Z,15.2
2019-03-27T07:24:10.649Z,14.9
2019-03-27T07:25:10.702Z,15
2019-03-27T07:26:10.753Z,14.4
2019-03-27T07:27:10.833Z,15.7
2019-03-27T07:28:10.881Z,15.4
2019-03-27T07:29:10.921Z,16.299999
2019-03-27T07:30:10.967Z,15.3
2019-03-27T07:31:11.005Z,14.5
2019-03-27T07:32:11.160Z,16.1
2019-03-27T07:33:11.209Z,15.2
2019-03-27T07:34:12.274Z,14.4
2019-03-27T07:35:11.439Z,13.8
2019-03-27T07:36:11.313Z,13.2
2019-03-27T07:37:11.377Z,12.9
2019-03-27T07:38:11.414Z,14.3
2019-03-27T07:39:11.611Z,14.2
2019-03-27T07:40:11.498Z,14.6
2019-03-27T07:41:11.538Z,14.5
2019-03-27T07:42:11.626Z,13.9
2019-03-27T07:43:11.677Z,13
2019-03-27T07:44:11.738Z,11.7
2019-03-27T07:45:11.804Z,12.8
2019-03-27T07:46:11.848Z,12.2
2019-03-27T07:47:11.909Z,13.7
2019-03-27T07:48:11.947Z,13.4
2019-03-27T07:49:11.990Z,14.1
2019-03-27T07:50:12.038Z,14.3
2019-03-27T07:51:12.108Z,12.9
2019-03-27T07:52:12.196Z,12.2
2019-03-27T07:53:12.220Z,11.8
2019-03-27T07:54:12.262Z,11.1
2019-03-27T07:55:19.021Z,10.3
2019-03-27T07:56:13.324Z,10.2
2019-03-27T07:57:12.383Z,10.5
2019-03-27T07:58:12.428Z,10.1
2019-03-27T07:59:12.493Z,10.3
2019-03-27T08:00:12.568Z,10.3
2019-03-27T08:01:12.604Z,9.8
2019-03-27T08:02:12.663Z,9.6
2019-03-27T08:03:12.730Z,10.6
2019-03-27T08:04:14.338Z,9.7
2019-03-27T08:05:12.841Z,10.4
2019-03-27T08:06:12.892Z,9.9
2019-03-27T08:07:25.805Z,10.1
2019-03-27T08:08:14.097Z,10
2019-03-27T08:09:13.152Z,10.1
2019-03-27T08:10:13.191Z,10.6
2019-03-27T08:11:13.243Z,10.2
2019-03-27T08:12:13.301Z,10.5
2019-03-27T08:13:13.352Z,9.8
2019-03-27T08:14:13.390Z,9.1
2019-03-27T08:15:13.437Z,9.2
2019-03-27T08:16:13.488Z,9.4
2019-03-27T08:17:13.570Z,8.7
2019-03-27T08:18:13.608Z,10
2019-03-27T08:19:13.633Z,10.4
2019-03-27T08:20:13.675Z,9.6
2019-03-27T08:21:13.829Z,9.1
2019-03-27T08:22:13.806Z,8.4
2019-03-27T08:23:13.837Z,7.8
2019-03-27T08:24:13.879Z,8.2
2019-03-27T08:25:13.949Z,8
2019-03-27T08:26:14.029Z,8.4
2019-03-27T08:27:14.603Z,8.6
2019-03-27T08:28:14.138Z,8.8
2019-03-27T08:29:14.170Z,8.3
2019-03-27T08:30:14.212Z,7.9
2019-03-27T08:31:14.251Z,8.5
2019-03-27T08:32:14.310Z,7.9
2019-03-27T08:33:14.370Z,7.3
2019-03-27T08:34:14.416Z,8.3
2019-03-27T08:35:14.453Z,7.7
2019-03-27T08:36:14.497Z,7.3
2019-03-27T08:37:14.565Z,8.7
2019-03-27T08:38:15.119Z,8
2019-03-27T08:39:14.649Z,7.7
2019-03-27T08:40:14.696Z,7.9
2019-03-27T08:41:14.739Z,7.5
2019-03-27T08:42:14.823Z,7.4
2019-03-27T08:43:20.911Z,7.9
2019-03-27T08:44:15.886Z,7.4
2019-03-27T08:45:14.957Z,7.9
2019-03-27T08:46:15.000Z,8
2019-03-27T08:47:15.088Z,7.4
2019-03-27T08:48:15.137Z,7.7
2019-03-27T08:49:21.538Z,8.3
2019-03-27T08:50:16.169Z,8.1
2019-03-27T08:51:15.229Z,8.5
2019-03-27T08:52:15.294Z,7.4
2019-03-27T08:53:15.368Z,7.9
2019-03-27T08:54:15.414Z,7.4
2019-03-27T08:55:15.477Z,7.5
2019-03-27T08:56:15.518Z,7.2
2019-03-27T08:57:15.649Z,7
2019-03-27T08:58:15.691Z,7.2
2019-03-27T08:59:15.739Z,7
2019-03-27T09:00:15.798Z,7.5
2019-03-27T09:01:16.834Z,7.5
2019-03-27T09:02:15.898Z,7.5
2019-03-27T09:03:16.000Z,7.3
2019-03-27T09:04:16.063Z,7.8
2019-03-27T09:05:16.154Z,7.5
2019-03-27T09:06:16.210Z,7.5
2019-03-27T09:07:16.321Z,7.7
2019-03-27T09:08:16.424Z,7.1
2019-03-27T09:09:16.503Z,6.6
2019-03-27T09:10:16.564Z,6
2019-03-27T09:11:16.612Z,6.3
2019-03-27T09:12:16.721Z,5.9
2019-03-27T09:13:16.775Z,6.3
2019-03-27T09:14:16.822Z,6.4
2019-03-27T09:15:17.850Z,6.6
2019-03-27T09:16:16.883Z,6.9
2019-03-27T09:17:16.945Z,7.2
2019-03-27T09:18:17.135Z,7.8
2019-03-27T09:19:17.041Z,8
2019-03-27T09:20:17.083Z,10.7
2019-03-27T09:21:17.137Z,9.2
2019-03-27T09:22:17.199Z,9.1
2019-03-27T09:23:17.239Z,8
2019-03-27T09:24:17.276Z,7.6
2019-03-27T09:25:17.365Z,7.1
2019-03-27T09:26:17.431Z,7.5
2019-03-27T09:27:17.529Z,7.4
2019-03-27T09:28:17.566Z,7.2
2019-03-27T09:29:17.603Z,7.3
2019-03-27T09:30:17.651Z,7
2019-03-27T09:31:17.705Z,7.4
2019-03-27T09:32:17.804Z,7.3
2019-03-27T09:33:17.853Z,7.7
2019-03-27T09:34:17.927Z,6.9
2019-03-27T09:35:17.965Z,6.5
2019-03-27T09:36:18.030Z,6.6
2019-03-27T09:37:18.101Z,6.7
2019-03-27T09:38:18.151Z,6.5
2019-03-27T09:39:18.198Z,6.6
2019-03-27T09:40:18.251Z,6.8
2019-03-27T09:41:21.302Z,6.4
2019-03-27T09:42:19.355Z,6.3
2019-03-27T09:43:18.402Z,6.2
2019-03-27T09:44:18.440Z,7.4
2019-03-27T09:45:18.487Z,6.8
2019-03-27T09:46:18.525Z,6.4
2019-03-27T09:47:18.607Z,7.1
2019-03-27T09:48:18.657Z,6.9
2019-03-27T09:49:18.726Z,6.8
2019-03-27T09:50:18.770Z,6.7
2019-03-27T09:51:18.828Z,6.6
2019-03-27T09:52:18.941Z,6.6
2019-03-27T09:53:18.992Z,7
2019-03-27T09:54:19.043Z,6.9
2019-03-27T09:55:19.110Z,7.2
2019-03-27T09:56:19.683Z,7.7
2019-03-27T09:57:19.282Z,7
2019-03-27T09:58:19.373Z,7.4
2019-03-27T09:59:19.435Z,7
2019-03-27T10:00:19.501Z,7.5
2019-03-27T10:01:19.574Z,8.1
2019-03-27T10:02:19.664Z,8
2019-03-27T10:03:19.700Z,8.1
2019-03-27T10:04:19.736Z,8.6
2019-03-27T10:05:19.778Z,7.7
2019-03-27T10:06:19.820Z,8.2
2019-03-27T10:07:19.886Z,8.1
2019-03-27T10:08:19.937Z,8.5
2019-03-27T10:09:19.989Z,7.7
2019-03-27T10:10:20.041Z,7.6
2019-03-27T10:11:20.094Z,8.1
2019-03-27T10:12:21.138Z,8.2
2019-03-27T10:13:20.190Z,8.1
2019-03-27T10:14:20.257Z,9.4
2019-03-27T10:15:20.413Z,10.3
2019-03-27T10:16:20.421Z,10.6
2019-03-27T10:17:20.488Z,10.5
2019-03-27T10:18:20.501Z,10.7
2019-03-27T10:19:20.654Z,11
2019-03-27T10:20:20.688Z,11.7
2019-03-27T10:21:20.772Z,12.4
2019-03-27T10:22:20.785Z,13.7
2019-03-27T10:23:20.831Z,14.7
2019-03-27T10:24:20.884Z,13.9
2019-03-27T10:25:20.894Z,11.7
2019-03-27T10:26:20.983Z,9.7
2019-03-27T10:27:21.063Z,9.7
2019-03-27T10:28:21.186Z,10
2019-03-27T10:29:21.223Z,13.1
2019-03-27T10:30:21.241Z,17.200001
2019-03-27T10:31:21.280Z,17.299999
2019-03-27T10:32:21.472Z,16.9
2019-03-27T10:33:21.487Z,14.8
2019-03-27T10:34:21.555Z,14.4
2019-03-27T10:35:21.658Z,16.9
2019-03-27T10:36:21.700Z,17
2019-03-27T10:37:21.768Z,17.799999
2019-03-27T10:38:21.813Z,18.6
2019-03-27T10:39:21.888Z,14.3
2019-03-27T10:40:21.995Z,14.2
2019-03-27T10:41:22.094Z,12.1
2019-03-27T10:42:22.167Z,12.3
2019-03-27T10:43:22.185Z,12.6
2019-03-27T10:44:22.187Z,12.7
2019-03-27T10:45:22.186Z,11.7
2019-03-27T10:46:22.315Z,8.9
2019-03-27T10:47:22.435Z,8.9
2019-03-27T10:48:22.484Z,8.9
2019-03-27T10:49:22.543Z,9.1
2019-03-27T10:50:22.695Z,10.1
2019-03-27T10:51:22.715Z,11.3
2019-03-27T10:52:22.799Z,12.3
2019-03-27T10:53:22.809Z,13.4
2019-03-27T10:54:22.863Z,13.9
2019-03-27T10:55:22.901Z,14.8
2019-03-27T10:56:22.948Z,14.8
2019-03-27T10:57:23.019Z,15.7
2019-03-27T10:58:23.160Z,15.6
2019-03-27T10:59:23.150Z,15.6
2019-03-27T11:00:23.349Z,16.6
2019-03-27T11:01:23.345Z,17
2019-03-27T11:02:23.399Z,17.1
2019-03-27T11:03:23.446Z,16.5
2019-03-27T11:04:23.484Z,16.6
2019-03-27T11:05:23.514Z,16.6
2019-03-27T11:06:23.538Z,15.5
2019-03-27T11:07:23.757Z,15.2
2019-03-27T11:08:23.777Z,14.3
2019-03-27T11:09:23.813Z,14.3
2019-03-27T11:10:23.903Z,13.7
2019-03-27T11:11:23.932Z,13.2
2019-03-27T11:12:24.005Z,13.3
2019-03-27T11:13:24.030Z,13
2019-03-27T11:14:36.742Z,11.3
2019-03-27T11:15:25.168Z,9.6
2019-03-27T11:16:24.254Z,8.9
2019-03-27T11:17:24.357Z,10
2019-03-27T11:18:24.310Z,11.8
2019-03-27T11:19:24.371Z,11.1
2019-03-27T11:20:30.612Z,9.2
2019-03-27T11:21:25.431Z,6.9
2019-03-27T11:22:24.551Z,7.4
2019-03-27T11:23:24.613Z,7.3
2019-03-27T11:24:24.691Z,6.9
2019-03-27T11:25:24.748Z,6.6
2019-03-27T11:26:24.823Z,7.3
2019-03-27T11:27:24.955Z,6.2
2019-03-27T11:28:24.995Z,5.9
2019-03-27T11:29:25.043Z,5.4
2019-03-27T11:30:25.082Z,5.4
2019-03-27T11:31:25.137Z,5.6
2019-03-27T11:32:25.251Z,5
2019-03-27T11:33:28.563Z,5.4
2019-03-27T11:34:26.338Z,5.3
2019-03-27T11:35:25.409Z,5.2
2019-03-27T11:36:25.461Z,5.4
2019-03-27T11:37:25.561Z,5.6
2019-03-27T11:38:25.614Z,5.2
2019-03-27T11:39:25.708Z,7
2019-03-27T11:40:25.773Z,6.9
2019-03-27T11:41:25.880Z,6.9
2019-03-27T11:42:25.995Z,6.5
2019-03-27T11:43:26.119Z,6.6
2019-03-27T11:44:26.178Z,6.6
2019-03-27T11:45:26.382Z,6.7
2019-03-27T11:46:27.234Z,6.9
2019-03-27T11:47:27.271Z,7.1
2019-03-27T11:48:26.361Z,7.2
2019-03-27T11:49:26.384Z,7.1
2019-03-27T11:50:26.430Z,7.4
2019-03-27T11:51:26.488Z,6.7
2019-03-27T11:52:29.489Z,6.4
2019-03-27T11:53:27.616Z,4.8
2019-03-27T11:54:26.699Z,4.7
2019-03-27T11:55:26.767Z,4.9
2019-03-27T11:56:26.817Z,5
2019-03-27T11:57:26.865Z,4.6
2019-03-27T11:58:26.931Z,4.7
2019-03-27T11:59:26.984Z,4.9
2019-03-27T12:00:27.043Z,4.6
2019-03-27T12:01:38.886Z,4.5
2019-03-27T12:02:28.123Z,4.5
2019-03-27T12:03:27.185Z,4.7
2019-03-27T12:04:27.239Z,4.3
2019-03-27T12:05:27.295Z,4.1
2019-03-27T12:06:27.344Z,4.4
2019-03-27T12:07:27.377Z,4.5
2019-03-27T12:08:27.459Z,4.7
2019-03-27T12:09:27.498Z,4.2
2019-03-27T12:10:27.568Z,4.1
2019-03-27T12:11:27.651Z,4.1
2019-03-27T12:12:27.678Z,4.4
2019-03-27T12:13:27.758Z,4.6
2019-03-27T12:14:27.801Z,4.5
2019-03-27T12:15:27.847Z,4.2
2019-03-27T12:16:27.910Z,4.4
2019-03-27T12:17:27.958Z,4.7
2019-03-27T12:18:28.031Z,4.5
2019-03-27T12:19:29.088Z,4.2
2019-03-27T12:20:28.148Z,4.4
2019-03-27T12:21:28.242Z,4.4
2019-03-27T12:22:28.315Z,4.3
2019-03-27T12:23:28.410Z,4.1
2019-03-27T12:24:28.820Z,3.8
2019-03-27T12:25:28.501Z,4.2
2019-03-27T12:26:28.549Z,4.1
2019-03-27T12:27:28.596Z,4.1
2019-03-27T12:28:28.661Z,4.2
2019-03-27T12:29:28.714Z,4.2
2019-03-27T12:30:28.751Z,4.1
2019-03-27T12:31:28.831Z,4.6
2019-03-27T12:32:28.883Z,4.2
2019-03-27T12:33:28.979Z,4.6
2019-03-27T12:34:29.025Z,4.6
2019-03-27T12:35:29.090Z,4.7
2019-03-27T12:36:29.132Z,4.3
2019-03-27T12:37:29.186Z,4.2
2019-03-27T12:38:29.267Z,4.2
2019-03-27T12:39:29.311Z,4
2019-03-27T12:40:29.385Z,4.2
2019-03-27T12:41:29.429Z,4
2019-03-27T12:42:30.466Z,3.9
2019-03-27T12:43:29.527Z,4.5
2019-03-27T12:44:29.585Z,4.2
2019-03-27T12:45:29.620Z,4.5
2019-03-27T12:46:29.674Z,4.4
2019-03-27T12:47:29.799Z,4.3
2019-03-27T12:48:29.907Z,4.1
2019-03-27T12:49:30.964Z,4.4
2019-03-27T12:50:30.004Z,4.3
2019-03-27T12:51:30.042Z,4.3
2019-03-27T12:52:30.093Z,4.3
2019-03-27T12:53:30.273Z,4.2
2019-03-27T12:54:30.174Z,4.1
2019-03-27T12:55:30.230Z,4.6
2019-03-27T12:56:30.315Z,4.6
2019-03-27T12:57:30.371Z,4.6
2019-03-27T12:58:30.493Z,4.6
2019-03-27T12:59:30.535Z,5
2019-03-27T13:00:30.908Z,4.6
2019-03-27T13:01:30.920Z,4.9